createdAt,value
2019-04-06T11:35:32.539Z,94236.63
2019-04-06T11:40:47.637Z,94241.29
2019-04-06T11:46:11.939Z,94236.73
2019-04-06T11:51:26.915Z,94234.50
2019-04-06T11:56:44.815Z,94244.53
2019-04-06T12:01:50.910Z,94234.20
2019-04-06T12:07:06.565Z,94237.30
2019-04-06T12:12:12.922Z,94228.38
2019-04-06T12:17:19.026Z,94229.35
2019-04-06T12:22:25.133Z,94230.14
2019-04-06T12:27:46.206Z,94226.98
2019-04-06T12:32:50.470Z,94216.73
2019-04-06T12:37:56.570Z,94229.46
2019-04-06T12:43:03.459Z,94218.81
2019-04-06T12:48:12.154Z,94222.70
2019-04-06T12:53:19.372Z,94213.84
2019-04-06T12:58:26.254Z,94228.83
2019-04-06T13:03:32.352Z,94216.11
2019-04-06T13:08:47.729Z,94213.33
2019-04-06T13:13:53.972Z,94206.70
2019-04-06T13:19:05.868Z,94205.78
2019-04-06T13:24:12.030Z,94213.66
2019-04-06T13:29:33.383Z,94218.22
2019-04-06T13:34:45.414Z,94205.33
2019-04-06T13:40:00.135Z,94197.73
2019-04-06T13:45:14.892Z,94191.47
2019-04-06T13:50:39.457Z,94187.40
2019-04-06T13:55:45.569Z,94190.00
2019-04-06T14:00:57.392Z,94181.20
2019-04-06T14:06:12.714Z,94172.72
2019-04-06T14:11:24.779Z,94167.74
2019-04-06T14:16:31.039Z,94165.20
2019-04-06T14:21:35.418Z,94169.08
2019-04-06T14:26:48.819Z,94176.77
2019-04-06T14:32:10.210Z,94176.77
2019-04-06T14:37:31.396Z,94179.02
2019-04-06T14:42:40.120Z,94182.96
2019-04-06T14:47:44.698Z,94179.70
2019-04-06T14:52:53.279Z,94172.75
2019-04-06T14:58:01.924Z,94173.87
2019-04-06T15:03:26.319Z,94167.51
2019-04-06T15:08:47.709Z,94170.17
2019-04-06T15:14:05.406Z,94171.94
2019-04-06T15:19:21.561Z,94167.53
2019-04-06T15:24:44.087Z,94180.27
2019-04-06T15:30:06.330Z,94174.62
2019-04-06T15:35:12.436Z,94179.49
2019-04-06T15:40:34.717Z,94175.37
2019-04-06T15:45:48.142Z,94182.55
2019-04-06T15:51:02.117Z,94181.66
2019-04-06T15:56:11.187Z,94182.06
2019-04-06T16:01:35.081Z,94180.34
2019-04-06T16:06:57.539Z,94180.14
2019-04-06T16:12:01.744Z,94184.23
2019-04-06T16:17:10.563Z,94176.55
2019-04-06T16:22:14.876Z,94173.30
2019-04-06T16:27:27.908Z,94177.72
2019-04-06T16:32:37.409Z,94182.76
2019-04-06T16:37:46.792Z,94182.43
2019-04-06T16:43:07.998Z,94176.48
2019-04-06T16:48:14.088Z,94172.04
2019-04-06T16:53:38.255Z,94173.44
2019-04-06T16:59:00.597Z,94172.44
2019-04-06T17:04:23.346Z,94182.92
